LROPLBWN

Guest
Details From LROP - Bucarest Otopeni Intl
To LBWN - Varna
Flight Number -
Tags Generated
Created
Modified
Stats Distance 110 nm / 204 km
Max Altitude 0 ft / 0 m
Waypoints 3
Social Downloads 3
Likes 0
Share VATSIM

Download

Looking for another format? Having issues loading an existing format? Contact us
Advertisement - Login to hide

Notes

Generated

Route

LROP R1830 LBWN

ID Type Via Altitude Latitude Longitude Leg Dist Tot Dist Heading (true) Name
O LROP APT - 0 ft / 0 m 44.57648˚ 26.08393˚ - 0 nm - -
R1830 FIX - 0 ft / 0 m 43.23344˚ 27.80983˚ 109 nm 109 nm 137° / 138° -
O LBWN APT - 0 ft / 0 m 43.23344˚ 27.80983˚ 0 nm 109 nm 0° / 180° -

Altitude Profile

Advertisement - Login to hide

LROP

Details ICAO LROP (OTP)
Name Bucarest Otopeni Intl
Region Romania
Timezone Europe/Bucharest (UTC+2.0)
Stats Elevation 314 ft / 96 m (AMSL)
Location 44.572161° 26.102177°
Runways 2
Magnetic Variation 5.605° E

METAR

LROP 131030Z 23010KT CAVOK 13/05 Q1015 NOSIG

Decode

TAF

TAF LROP 130500Z 1306/1406 24012KT CAVOK BECMG 1321/1323 5000 -RA BR BKN010 BKN030 PROB40 TEMPO 1400/1404 3000 RA BR BKN005 OVC030

Decode

Departure Runways

ID Width Length Bearing (true) Bearing (mag) Surface Threshold Offset Overrun Length
08L 148 ft / 45 m 11,457 ft / 3,492 m 83.91° 78.30° Asphalt 500 ft / 152 m 0 ft / 0 m
08R 148 ft / 45 m 11,455 ft / 3,491 m 83.89° 78.28° Asphalt 450 ft / 137 m 0 ft / 0 m
26L 148 ft / 45 m 11,455 ft / 3,491 m 263.92° 258.31° Asphalt 450 ft / 137 m 0 ft / 0 m
26R 148 ft / 45 m 11,457 ft / 3,492 m 263.94° 258.33° Asphalt 500 ft / 152 m 0 ft / 0 m

LBWN

Details ICAO LBWN (VAR)
Name Varna
Region Bulgaria
Timezone Europe/Sofia (UTC+2.0)
Stats Elevation 230 ft / 70 m (AMSL)
Location 43.232042° 27.825236°
Runways 1
Magnetic Variation 5.647° E

METAR

LBWN 131030Z 27003KT 220V300 CAVOK 14/05 Q1016 NOSIG

Decode

TAF

TAF LBWN 130500Z 1306/1406 VRB04KT CAVOK TEMPO 1306/1307 5000 BR NSC BECMG 1307/1309 27010KT BECMG 1320/1322 SCT030 BKN040

Decode

Destination Runways

ID Width Length Bearing (true) Bearing (mag) Surface Threshold Offset Overrun Length
09 180 ft / 55 m 8,254 ft / 2,516 m 97.11° 91.46° Concrete 350 ft / 107 m 0 ft / 0 m
27 180 ft / 55 m 8,254 ft / 2,516 m 277.13° 271.48° Concrete 350 ft / 107 m 0 ft / 0 m

Approach Navaids

Runway Type Ident Frequency Range Bearing (true) Bearing (mag) Slope Elevation
09 Localiser IWN 109.90 MHz 18 nm / 33 km 97.27° 91.62° - 230 ft / 70 m (AMSL)
09 Glidescope IWN 109.90 MHz 10 nm / 19 km 97.12° 91.48° 3.00° 230 ft / 70 m (AMSL)

Popular Alternatives